Time;durP1;ratioP1;P1;durP2;ratioP2;P2;SDS_P1;SDS_P2;PMS_P1;PMS_P2;Temp;Humidity;BMP_temperature;BMP_pressure;BME280_temperature;BME280_humidity;BME280_pressure;Samples;Min_cycle;Max_cycle;Signal;HPM_P1;HPM_P2
2023/06/15 00:00:52;;;;;;;7.90;4.97;;;;;;;;;;2056312;28;20030;-89
2023/06/15 00:01:53;;;;;;;6.97;5.00;;;;;;;;;;2055964;28;20450;-88
2023/06/15 00:02:55;;;;;;;9.32;4.57;;;;;;;;;;2055951;28;20101;-87
2023/06/15 00:03:56;;;;;;;5.57;4.65;;;;;;;;;;2055381;28;20034;-88
2023/06/15 00:04:56;;;;;;;7.40;4.78;;;;;;;;;;2054489;28;20046;-88
2023/06/15 00:05:57;;;;;;;7.53;4.95;;;;;;;;;;2054106;28;20033;-87
2023/06/15 00:06:57;;;;;;;5.78;4.47;;;;;;;;;;1703598;28;10236300;-89
2023/06/15 00:07:58;;;;;;;6.40;4.65;;;;;;;;;;2053835;28;20023;-88
2023/06/15 00:09:00;;;;;;;8.88;4.53;;;;;;;;;;2053856;28;20106;-88
2023/06/15 00:10:00;;;;;;;10.57;5.10;;;;;;;;;;2057926;28;20035;-89
2023/06/15 00:11:06;;;;;;;7.48;4.54;;;;;;;;;;1920671;28;10004540;-89
2023/06/15 00:12:09;;;;;;;5.90;4.50;;;;;;;;;;2064723;28;20270;-88
2023/06/15 00:13:09;;;;;;;11.55;5.20;;;;;;;;;;2064354;28;20015;-88
2023/06/15 00:14:10;;;;;;;7.07;4.97;;;;;;;;;;2055848;29;20082;-88
2023/06/15 00:15:11;;;;;;;5.03;4.55;;;;;;;;;;2056274;29;20050;-89
2023/06/15 00:16:12;;;;;;;8.05;4.78;;;;;;;;;;2061035;28;20050;-89
2023/06/15 00:17:14;;;;;;;7.25;4.95;;;;;;;;;;2059366;28;20022;-89
2023/06/15 00:18:14;;;;;;;7.43;4.73;;;;;;;;;;1703183;28;10272423;-89
2023/06/15 00:19:16;;;;;;;6.90;4.63;;;;;;;;;;2055618;28;20781;-89
2023/06/15 00:20:16;;;;;;;6.90;4.55;;;;;;;;;;2054932;28;20207;-89
2023/06/15 00:21:16;;;;;;;5.07;4.43;;;;;;;;;;2055047;28;20027;-89
2023/06/15 00:22:17;;;;;;;6.97;4.63;;;;;;;;;;2054536;28;20570;-89
2023/06/15 00:23:18;;;;;;;7.20;4.63;;;;;;;;;;2046999;29;20233;-89
2023/06/15 00:24:18;;;;;;;5.95;4.45;;;;;;;;;;2054975;28;20115;-89
2023/06/15 00:25:18;;;;;;;6.10;5.10;;;;;;;;;;2055363;28;20494;-88
2023/06/15 00:26:19;;;;;;;6.28;4.93;;;;;;;;;;2055586;28;20486;-89
2023/06/15 00:27:20;;;;;;;5.60;4.60;;;;;;;;;;2046778;29;20062;-89
2023/06/15 00:28:20;;;;;;;7.60;4.40;;;;;;;;;;2046685;28;20027;-89
2023/06/15 00:29:21;;;;;;;5.90;4.35;;;;;;;;;;2055483;28;20065;-89
2023/06/15 00:30:21;;;;;;;5.88;4.80;;;;;;;;;;2055441;28;20807;-89
2023/06/15 00:31:22;;;;;;;5.05;4.30;;;;;;;;;;2055465;28;20109;-89
2023/06/15 00:32:22;;;;;;;9.60;4.97;;;;;;;;;;2055702;28;20113;-89
2023/06/15 00:33:23;;;;;;;7.57;5.00;;;;;;;;;;2054665;28;20437;-89
2023/06/15 00:34:23;;;;;;;5.63;4.82;;;;;;;;;;2054307;28;20035;-89
2023/06/15 00:35:24;;;;;;;6.05;5.00;;;;;;;;;;2054930;28;20427;-89
2023/06/15 00:36:24;;;;;;;7.35;4.75;;;;;;;;;;2055958;28;20041;-89
2023/06/15 00:37:25;;;;;;;7.45;5.03;;;;;;;;;;2057945;28;20038;-88
2023/06/15 00:38:25;;;;;;;5.60;4.45;;;;;;;;;;2055709;28;20069;-88
2023/06/15 00:39:26;;;;;;;5.82;4.38;;;;;;;;;;2054679;28;20448;-88
2023/06/15 00:40:26;;;;;;;7.70;4.47;;;;;;;;;;2054712;28;20057;-88
2023/06/15 00:41:27;;;;;;;5.63;4.80;;;;;;;;;;2055424;28;20014;-88
2023/06/15 00:42:30;;;;;;;5.82;5.10;;;;;;;;;;2055539;28;20534;-88
2023/06/15 00:43:31;;;;;;;11.55;5.35;;;;;;;;;;2055775;28;20035;-88
2023/06/15 00:44:32;;;;;;;7.32;4.78;;;;;;;;;;2055654;28;20567;-88
2023/06/15 00:45:32;;;;;;;8.00;4.97;;;;;;;;;;2055878;28;20435;-88
2023/06/15 00:46:37;;;;;;;5.43;4.50;;;;;;;;;;2054958;28;20142;-89
2023/06/15 00:47:38;;;;;;;5.63;4.90;;;;;;;;;;2047588;28;20074;-88
2023/06/15 00:48:40;;;;;;;6.53;4.93;;;;;;;;;;2054761;28;20098;-89
2023/06/15 00:49:40;;;;;;;6.90;5.22;;;;;;;;;;2055110;28;20027;-88
2023/06/15 00:50:41;;;;;;;;;;;;;;;;;;1704350;28;10237399;-88
2023/06/15 00:51:43;;;;;;;8.48;4.90;;;;;;;;;;2054699;28;20250;-89
2023/06/15 00:52:46;;;;;;;8.75;4.90;;;;;;;;;;2055429;28;20035;-89
2023/06/15 00:53:47;;;;;;;8.05;5.05;;;;;;;;;;2054284;28;20034;-88
2023/06/15 00:54:48;;;;;;;6.15;5.55;;;;;;;;;;2054546;28;20562;-89
2023/06/15 00:55:49;;;;;;;8.70;5.60;;;;;;;;;;2055676;28;20034;-88
2023/06/15 00:56:51;;;;;;;7.65;6.07;;;;;;;;;;2054974;28;20499;-89
2023/06/15 00:57:52;;;;;;;7.43;5.32;;;;;;;;;;2054994;28;20502;-88
2023/06/15 00:58:53;;;;;;;10.52;5.65;;;;;;;;;;2055342;28;20058;-89
2023/06/15 00:59:53;;;;;;;8.20;5.25;;;;;;;;;;2055112;28;20054;-88
2023/06/15 01:00:54;;;;;;;5.38;4.88;;;;;;;;;;2047457;29;20487;-88
2023/06/15 01:01:54;;;;;;;6.80;4.93;;;;;;;;;;2047351;29;20053;-88
2023/06/15 01:02:56;;;;;;;7.20;5.55;;;;;;;;;;2047133;28;20105;-88
2023/06/15 01:03:57;;;;;;;6.95;5.50;;;;;;;;;;2055108;28;20023;-88
2023/06/15 01:04:57;;;;;;;7.28;5.15;;;;;;;;;;2056361;28;20023;-88
2023/06/15 01:05:59;;;;;;;8.88;5.57;;;;;;;;;;2055926;28;20022;-88
2023/06/15 01:07:02;;;;;;;10.45;6.72;;;;;;;;;;2055328;28;20491;-88
2023/06/15 01:08:08;;;;;;;7.57;6.22;;;;;;;;;;2055616;28;20031;-88
2023/06/15 01:09:11;;;;;;;10.65;7.15;;;;;;;;;;2056045;28;20102;-89
2023/06/15 01:10:12;;;;;;;8.73;7.10;;;;;;;;;;2055122;28;20118;-89
2023/06/15 01:11:14;;;;;;;9.35;6.65;;;;;;;;;;2054624;28;20050;-88
2023/06/15 01:12:17;;;;;;;7.55;5.70;;;;;;;;;;2054892;28;20097;-88
2023/06/15 01:13:20;;;;;;;7.80;5.68;;;;;;;;;;2055636;28;20022;-87
2023/06/15 01:14:24;;;;;;;10.40;5.30;;;;;;;;;;2055451;28;20031;-87
2023/06/15 01:15:24;;;;;;;8.43;5.60;;;;;;;;;;2055225;28;20094;-88
2023/06/15 01:16:32;;;;;;;7.78;5.57;;;;;;;;;;2054895;28;20093;-88
2023/06/15 01:17:33;;;;;;;6.47;5.25;;;;;;;;;;2047558;28;20027;-89
2023/06/15 01:18:36;;;;;;;7.65;5.13;;;;;;;;;;2054872;28;20046;-90
2023/06/15 01:19:57;;;;;;;8.48;5.30;;;;;;;;;;2055009;28;20023;-88
2023/06/15 01:21:01;;;;;;;8.75;5.43;;;;;;;;;;2049723;28;20058;-89
2023/06/15 01:22:15;;;;;;;9.93;5.47;;;;;;;;;;2054836;28;20400;-89
2023/06/15 01:23:43;;;;;;;8.45;4.95;;;;;;;;;;2055475;28;20085;-89
2023/06/15 01:25:02;;;;;;;7.40;4.93;;;;;;;;;;2055431;28;20392;-90
2023/06/15 01:26:13;;;;;;;8.57;5.63;;;;;;;;;;2055493;28;20047;-90
2023/06/15 01:27:14;;;;;;;12.63;5.03;;;;;;;;;;2051640;28;20024;-89
2023/06/15 01:28:22;;;;;;;12.10;6.47;;;;;;;;;;2046716;29;20484;-89
2023/06/15 01:29:26;;;;;;;6.93;4.40;;;;;;;;;;2048063;28;20112;-89
2023/06/15 01:30:29;;;;;;;7.57;5.35;;;;;;;;;;2055046;28;20117;-89
2023/06/15 01:31:30;;;;;;;9.15;5.43;;;;;;;;;;2054948;28;20014;-89
2023/06/15 01:32:32;;;;;;;6.65;5.20;;;;;;;;;;2054672;28;20475;-89
2023/06/15 01:33:33;;;;;;;9.02;5.82;;;;;;;;;;2054887;28;20035;-89
2023/06/15 01:34:33;;;;;;;8.73;5.20;;;;;;;;;;2054820;28;20030;-89
2023/06/15 01:35:34;;;;;;;7.95;5.32;;;;;;;;;;2046817;29;20423;-89
2023/06/15 01:36:36;;;;;;;11.05;5.45;;;;;;;;;;2054978;28;20564;-90
2023/06/15 01:37:36;;;;;;;12.25;5.00;;;;;;;;;;2054785;28;20023;-89
2023/06/15 01:38:37;;;;;;;10.60;4.97;;;;;;;;;;2054547;28;20042;-89
2023/06/15 01:39:39;;;;;;;12.05;5.30;;;;;;;;;;2054894;28;20031;-89
2023/06/15 01:40:42;;;;;;;8.85;5.13;;;;;;;;;;2046781;28;20034;-89
2023/06/15 01:41:44;;;;;;;11.82;5.85;;;;;;;;;;2054691;28;20421;-89
2023/06/15 01:42:45;;;;;;;10.13;5.43;;;;;;;;;;2046615;28;20128;-89
2023/06/15 01:43:46;;;;;;;10.38;6.05;;;;;;;;;;2046990;28;20069;-89
2023/06/15 01:44:49;;;;;;;10.77;5.47;;;;;;;;;;2054477;28;20033;-89
2023/06/15 01:45:51;;;;;;;10.85;5.97;;;;;;;;;;2054922;28;20034;-89
2023/06/15 01:46:51;;;;;;;9.77;5.55;;;;;;;;;;2054653;28;20126;-88
2023/06/15 01:47:52;;;;;;;9.07;5.20;;;;;;;;;;2046700;29;20031;-89
2023/06/15 01:48:53;;;;;;;8.82;5.20;;;;;;;;;;2046485;29;20039;-89
2023/06/15 01:49:54;;;;;;;8.63;5.82;;;;;;;;;;2047034;29;20122;-89
2023/06/15 01:50:56;;;;;;;9.07;5.55;;;;;;;;;;2054820;28;20053;-88
2023/06/15 01:51:56;;;;;;;11.20;5.65;;;;;;;;;;2054482;28;20034;-89
2023/06/15 01:52:57;;;;;;;10.85;5.35;;;;;;;;;;2054928;28;20070;-89
2023/06/15 01:53:58;;;;;;;11.30;5.00;;;;;;;;;;1724523;28;10418612;-89
2023/06/15 01:54:58;;;;;;;10.68;4.88;;;;;;;;;;2054853;28;20268;-89
2023/06/15 01:56:00;;;;;;;13.40;6.25;;;;;;;;;;2054553;28;20414;-89
2023/06/15 01:57:01;;;;;;;12.52;6.60;;;;;;;;;;2054675;28;20122;-89
2023/06/15 01:58:01;;;;;;;9.45;5.85;;;;;;;;;;2054679;28;20107;-88
2023/06/15 01:59:02;;;;;;;10.55;5.82;;;;;;;;;;2055396;28;20022;-89
2023/06/15 02:00:04;;;;;;;10.27;5.78;;;;;;;;;;2054626;28;20037;-89
2023/06/15 02:01:05;;;;;;;7.38;4.97;;;;;;;;;;2054808;28;20033;-88
2023/06/15 02:02:05;;;;;;;12.00;5.20;;;;;;;;;;2054496;28;20514;-89
2023/06/15 02:03:05;;;;;;;11.40;5.50;;;;;;;;;;2054783;28;20061;-89
2023/06/15 02:04:07;;;;;;;10.45;5.55;;;;;;;;;;2055302;28;20120;-88
2023/06/15 02:05:08;;;;;;;9.05;5.47;;;;;;;;;;2054931;28;20411;-88
2023/06/15 02:06:08;;;;;;;10.20;5.45;;;;;;;;;;2054722;28;20144;-88
2023/06/15 02:07:08;;;;;;;9.30;5.63;;;;;;;;;;2054920;28;20665;-88
2023/06/15 02:08:10;;;;;;;9.05;5.25;;;;;;;;;;2054658;28;20081;-88
2023/06/15 02:09:11;;;;;;;10.25;5.68;;;;;;;;;;2054503;28;20026;-89
2023/06/15 02:10:12;;;;;;;12.25;6.00;;;;;;;;;;2054720;28;20042;-88
2023/06/15 02:11:13;;;;;;;11.07;6.13;;;;;;;;;;2046483;29;20518;-87
2023/06/15 02:12:14;;;;;;;13.40;5.82;;;;;;;;;;2046486;28;20589;-88
2023/06/15 02:13:15;;;;;;;11.38;5.70;;;;;;;;;;2046530;29;20142;-89
2023/06/15 02:14:17;;;;;;;10.82;5.47;;;;;;;;;;2054678;28;20483;-88
2023/06/15 02:15:18;;;;;;;11.43;5.97;;;;;;;;;;2057113;28;20406;-88
2023/06/15 02:16:19;;;;;;;15.25;5.15;;;;;;;;;;2058775;28;20074;-87
2023/06/15 02:17:20;;;;;;;14.85;5.82;;;;;;;;;;2055905;28;20038;-88
2023/06/15 02:18:21;;;;;;;10.52;5.95;;;;;;;;;;2056141;28;20106;-88
2023/06/15 02:19:21;;;;;;;12.40;6.00;;;;;;;;;;2056025;28;20023;-88
2023/06/15 02:20:21;;;;;;;11.13;5.90;;;;;;;;;;2056631;28;20532;-88
2023/06/15 02:21:22;;;;;;;11.25;5.97;;;;;;;;;;2066089;28;20031;-88
2023/06/15 02:22:22;;;;;;;11.20;5.43;;;;;;;;;;2067403;28;20046;-88
2023/06/15 02:23:24;;;;;;;12.07;6.18;;;;;;;;;;2064451;28;20023;-88
2023/06/15 02:24:24;;;;;;;14.27;6.63;;;;;;;;;;2065319;28;20114;-88
2023/06/15 02:25:27;;;;;;;10.45;6.28;;;;;;;;;;2063580;28;20051;-88
2023/06/15 02:26:28;;;;;;;11.43;5.55;;;;;;;;;;2061604;28;20027;-88
2023/06/15 02:27:28;;;;;;;12.25;6.30;;;;;;;;;;2056989;28;20046;-89
2023/06/15 02:28:29;;;;;;;14.18;5.88;;;;;;;;;;2055242;28;20029;-89
2023/06/15 02:29:30;;;;;;;17.30;5.57;;;;;;;;;;2055835;28;20031;-89
2023/06/15 02:30:31;;;;;;;8.90;5.85;;;;;;;;;;2056678;28;20133;-89
2023/06/15 02:31:31;;;;;;;13.55;5.95;;;;;;;;;;2056245;28;20181;-89
2023/06/15 02:32:34;;;;;;;15.60;5.90;;;;;;;;;;2056667;28;20466;-89
2023/06/15 02:33:35;;;;;;;13.05;6.40;;;;;;;;;;2056992;28;20031;-89
2023/06/15 02:34:36;;;;;;;13.35;7.20;;;;;;;;;;2056199;28;20436;-89
2023/06/15 02:35:37;;;;;;;9.98;6.57;;;;;;;;;;1695951;28;10425515;-89
2023/06/15 02:36:37;;;;;;;12.50;6.20;;;;;;;;;;2047386;29;20266;-89
2023/06/15 02:37:39;;;;;;;9.82;5.78;;;;;;;;;;2047365;29;20050;-88
2023/06/15 02:38:40;;;;;;;10.05;5.80;;;;;;;;;;2055394;28;20023;-89
2023/06/15 02:39:41;;;;;;;13.27;6.53;;;;;;;;;;2062002;28;20029;-89
2023/06/15 02:40:41;;;;;;;15.15;6.43;;;;;;;;;;2066226;28;20022;-88
2023/06/15 02:41:41;;;;;;;14.05;6.75;;;;;;;;;;2058226;28;20019;-89
2023/06/15 02:42:42;;;;;;;12.90;6.72;;;;;;;;;;2065990;28;20050;-89
2023/06/15 02:43:42;;;;;;;12.98;5.75;;;;;;;;;;2066402;28;20049;-88
2023/06/15 02:44:43;;;;;;;12.20;6.15;;;;;;;;;;2063687;28;20035;-88
2023/06/15 02:45:43;;;;;;;17.48;6.10;;;;;;;;;;2056832;28;20037;-89
2023/06/15 02:46:44;;;;;;;10.55;5.30;;;;;;;;;;2058025;28;20031;-88
2023/06/15 02:47:45;;;;;;;14.90;7.60;;;;;;;;;;2057933;28;20039;-88
2023/06/15 02:48:51;;;;;;;11.73;6.35;;;;;;;;;;2056016;28;20089;-88
2023/06/15 02:49:53;;;;;;;9.35;5.55;;;;;;;;;;2056333;28;20344;-88
2023/06/15 02:50:53;;;;;;;8.45;5.82;;;;;;;;;;2055937;28;20031;-87
2023/06/15 02:51:54;;;;;;;11.75;5.70;;;;;;;;;;2055910;28;20111;-88
2023/06/15 02:52:55;;;;;;;10.00;5.80;;;;;;;;;;2055879;28;20125;-88
2023/06/15 02:53:56;;;;;;;11.13;6.22;;;;;;;;;;2048092;28;20310;-88
2023/06/15 02:54:58;;;;;;;13.05;6.10;;;;;;;;;;2055896;28;20030;-87
2023/06/15 02:55:58;;;;;;;14.77;6.22;;;;;;;;;;2056380;28;20031;-87
2023/06/15 02:56:59;;;;;;;14.15;6.85;;;;;;;;;;2056018;28;20453;-88
2023/06/15 02:57:59;;;;;;;12.60;5.80;;;;;;;;;;2055934;28;20101;-88
2023/06/15 02:59:00;;;;;;;13.55;6.15;;;;;;;;;;2055450;28;20419;-87
2023/06/15 03:00:00;;;;;;;9.10;5.03;;;;;;;;;;2055422;28;20098;-88
2023/06/15 03:01:01;;;;;;;8.30;5.30;;;;;;;;;;2055545;28;20422;-88
2023/06/15 03:02:04;;;;;;;11.93;6.70;;;;;;;;;;2055530;28;20051;-88
2023/06/15 03:03:04;;;;;;;9.00;5.90;;;;;;;;;;2055888;28;20434;-88
2023/06/15 03:04:13;;;;;;;11.90;6.18;;;;;;;;;;2056355;28;20030;-88
2023/06/15 03:05:13;;;;;;;10.35;5.60;;;;;;;;;;2058665;28;20085;-88
2023/06/15 03:06:16;;;;;;;10.30;6.00;;;;;;;;;;2056573;28;20027;-88
2023/06/15 03:07:17;;;;;;;11.50;6.00;;;;;;;;;;2056030;28;20031;-88
2023/06/15 03:08:18;;;;;;;9.38;5.57;;;;;;;;;;2055120;28;20027;-88
2023/06/15 03:09:22;;;;;;;8.85;6.30;;;;;;;;;;2055596;28;20615;-88
2023/06/15 03:10:23;;;;;;;10.38;5.88;;;;;;;;;;2055608;28;20482;-88
2023/06/15 03:11:23;;;;;;;13.13;6.75;;;;;;;;;;2047726;29;20067;-88
2023/06/15 03:12:23;;;;;;;11.30;7.28;;;;;;;;;;2055416;28;20094;-89
2023/06/15 03:13:24;;;;;;;18.52;7.60;;;;;;;;;;2055735;28;20471;-88
2023/06/15 03:14:26;;;;;;;9.85;7.10;;;;;;;;;;2056081;28;20502;-88
2023/06/15 03:15:26;;;;;;;10.18;7.65;;;;;;;;;;2056126;28;20149;-89
2023/06/15 03:16:27;;;;;;;17.17;8.50;;;;;;;;;;2055886;28;20054;-88
2023/06/15 03:17:29;;;;;;;12.75;8.15;;;;;;;;;;2055897;28;20497;-88
2023/06/15 03:18:30;;;;;;;13.38;8.50;;;;;;;;;;2056330;28;20033;-88
2023/06/15 03:19:35;;;;;;;18.17;9.88;;;;;;;;;;1855709;28;10276743;-88
2023/06/15 03:20:35;;;;;;;14.77;9.38;;;;;;;;;;1703885;28;10255369;-88
2023/06/15 03:21:37;;;;;;;14.65;9.90;;;;;;;;;;2055079;28;20503;-88
2023/06/15 03:22:37;;;;;;;11.38;9.05;;;;;;;;;;2047383;28;20031;-88
2023/06/15 03:23:38;;;;;;;13.68;6.75;;;;;;;;;;2046932;29;20027;-88
2023/06/15 03:24:39;;;;;;;11.98;6.80;;;;;;;;;;2055174;28;20085;-89
2023/06/15 03:25:40;;;;;;;8.63;5.97;;;;;;;;;;2054950;28;20118;-88
2023/06/15 03:26:42;;;;;;;12.05;6.07;;;;;;;;;;2054516;28;20526;-88
2023/06/15 03:27:42;;;;;;;11.70;5.78;;;;;;;;;;2054920;28;20145;-89
2023/06/15 03:28:43;;;;;;;13.02;6.43;;;;;;;;;;2047323;29;20487;-88
2023/06/15 03:29:49;;;;;;;12.48;5.97;;;;;;;;;;2047528;29;20392;-88
2023/06/15 03:30:52;;;;;;;7.38;5.57;;;;;;;;;;2058388;28;20541;-89
2023/06/15 03:31:53;;;;;;;10.30;6.43;;;;;;;;;;2055384;28;20027;-89
2023/06/15 03:32:53;;;;;;;11.60;6.60;;;;;;;;;;2055648;28;20039;-88
2023/06/15 03:33:55;;;;;;;9.70;6.30;;;;;;;;;;2055779;28;20098;-88
2023/06/15 03:34:57;;;;;;;9.93;6.03;;;;;;;;;;2056191;28;20120;-88
2023/06/15 03:36:01;;;;;;;11.98;6.00;;;;;;;;;;2056855;28;20372;-87
2023/06/15 03:37:01;;;;;;;9.52;6.53;;;;;;;;;;2056326;28;20406;-88
2023/06/15 03:38:02;;;;;;;8.93;6.55;;;;;;;;;;2056592;28;20041;-88
2023/06/15 03:39:03;;;;;;;10.55;5.85;;;;;;;;;;2056508;28;20023;-88
2023/06/15 03:40:07;;;;;;;11.70;5.82;;;;;;;;;;2055677;28;20167;-89
2023/06/15 03:41:08;;;;;;;10.45;6.43;;;;;;;;;;2055920;28;20037;-88
2023/06/15 03:42:09;;;;;;;10.27;6.00;;;;;;;;;;2055590;28;20051;-88
2023/06/15 03:43:10;;;;;;;12.13;6.40;;;;;;;;;;2055916;28;20109;-88
2023/06/15 03:44:11;;;;;;;9.43;6.15;;;;;;;;;;2055761;28;20145;-88
2023/06/15 03:45:12;;;;;;;9.82;5.70;;;;;;;;;;2055587;28;20435;-88
2023/06/15 03:46:12;;;;;;;12.85;6.00;;;;;;;;;;2052985;28;20291;-88
2023/06/15 03:47:13;;;;;;;12.05;8.48;;;;;;;;;;2056489;28;20034;-88
2023/06/15 03:48:13;;;;;;;10.07;6.30;;;;;;;;;;2056225;28;20142;-87
2023/06/15 03:49:14;;;;;;;8.95;6.35;;;;;;;;;;2055795;28;20031;-88
2023/06/15 03:50:15;;;;;;;8.68;6.10;;;;;;;;;;2056033;28;20055;-89
2023/06/15 03:51:15;;;;;;;10.10;6.32;;;;;;;;;;2052842;28;20137;-88
2023/06/15 03:52:15;;;;;;;12.75;6.18;;;;;;;;;;2055541;28;20466;-88
2023/06/15 03:53:16;;;;;;;10.13;6.30;;;;;;;;;;2055439;28;20030;-88
2023/06/15 03:54:16;;;;;;;6.95;5.78;;;;;;;;;;2057405;28;20050;-85
2023/06/15 03:55:17;;;;;;;9.38;5.88;;;;;;;;;;2057087;28;20031;-87
2023/06/15 03:56:17;;;;;;;9.38;5.88;;;;;;;;;;2047609;29;20083;-88
2023/06/15 03:57:18;;;;;;;10.20;6.00;;;;;;;;;;2047412;29;20197;-88
2023/06/15 03:58:18;;;;;;;7.43;6.25;;;;;;;;;;2047507;29;20054;-87
2023/06/15 03:59:19;;;;;;;11.18;7.20;;;;;;;;;;2047583;29;20453;-87
2023/06/15 04:00:20;;;;;;;10.35;6.25;;;;;;;;;;2055548;28;20057;-88
2023/06/15 04:01:22;;;;;;;9.38;6.55;;;;;;;;;;2055520;28;20089;-88
2023/06/15 04:02:22;;;;;;;8.45;6.43;;;;;;;;;;2055460;28;20027;-88
2023/06/15 04:03:23;;;;;;;9.55;6.70;;;;;;;;;;2055208;28;20045;-88
2023/06/15 04:04:23;;;;;;;10.40;6.15;;;;;;;;;;2055079;28;20583;-88
2023/06/15 04:05:24;;;;;;;9.23;6.05;;;;;;;;;;2046698;29;20023;-88
2023/06/15 04:06:24;;;;;;;10.15;7.45;;;;;;;;;;2055057;28;20046;-88
2023/06/15 04:07:28;;;;;;;8.50;6.70;;;;;;;;;;2055542;28;20031;-88
2023/06/15 04:08:28;;;;;;;10.60;6.85;;;;;;;;;;2055401;28;20101;-88
2023/06/15 04:09:29;;;;;;;16.58;10.73;;;;;;;;;;2055659;28;20263;-88
2023/06/15 04:10:29;;;;;;;15.70;8.10;;;;;;;;;;2055388;28;20041;-88
2023/06/15 04:11:30;;;;;;;12.32;7.22;;;;;;;;;;2055558;28;20344;-88
2023/06/15 04:12:30;;;;;;;9.82;6.47;;;;;;;;;;2055399;28;20076;-88
2023/06/15 04:13:31;;;;;;;9.15;6.45;;;;;;;;;;2054835;28;20030;-88
2023/06/15 04:14:31;;;;;;;10.00;6.50;;;;;;;;;;2054668;28;20023;-87
2023/06/15 04:15:32;;;;;;;7.80;6.18;;;;;;;;;;2054729;28;20321;-88
2023/06/15 04:16:33;;;;;;;12.02;6.97;;;;;;;;;;2055474;28;20022;-88
2023/06/15 04:17:33;;;;;;;10.00;6.50;;;;;;;;;;2055313;28;20034;-88
2023/06/15 04:18:33;;;;;;;9.05;6.28;;;;;;;;;;2054810;28;20416;-88
2023/06/15 04:19:34;;;;;;;8.93;5.82;;;;;;;;;;2054631;28;20023;-88
2023/06/15 04:20:36;;;;;;;9.15;5.78;;;;;;;;;;2054893;28;20107;-88
2023/06/15 04:21:39;;;;;;;9.05;6.38;;;;;;;;;;2054534;28;20038;-88
2023/06/15 04:22:39;;;;;;;10.23;6.25;;;;;;;;;;2054822;28;20015;-88
2023/06/15 04:23:42;;;;;;;9.07;5.95;;;;;;;;;;2054620;28;20125;-88
2023/06/15 04:24:42;;;;;;;11.90;6.63;;;;;;;;;;2055320;28;20094;-88
2023/06/15 04:25:43;;;;;;;8.95;6.32;;;;;;;;;;2055383;28;20030;-88
2023/06/15 04:26:43;;;;;;;8.57;5.70;;;;;;;;;;2054401;28;20471;-88
2023/06/15 04:27:46;;;;;;;7.97;6.40;;;;;;;;;;2054716;28;20037;-88
2023/06/15 04:28:49;;;;;;;8.15;6.55;;;;;;;;;;2055287;28;20022;-88
2023/06/15 04:29:49;;;;;;;9.30;5.95;;;;;;;;;;2055296;28;20177;-87
2023/06/15 04:31:05;;;;;;;11.63;6.22;;;;;;;;;;2055230;28;20105;-88
2023/06/15 04:32:15;;;;;;;7.57;6.07;;;;;;;;;;2004750;28;10634091;-88
2023/06/15 04:33:16;;;;;;;11.43;5.80;;;;;;;;;;2054798;28;20255;-88
2023/06/15 04:34:16;;;;;;;7.88;5.07;;;;;;;;;;2046366;29;20038;-88
2023/06/15 04:35:17;;;;;;;7.50;5.72;;;;;;;;;;2054502;28;20522;-89
2023/06/15 04:36:18;;;;;;;9.07;5.55;;;;;;;;;;2054431;28;20129;-89
2023/06/15 04:37:18;;;;;;;9.45;5.32;;;;;;;;;;2054659;28;20407;-89
2023/06/15 04:38:20;;;;;;;8.52;5.95;;;;;;;;;;2053446;28;20427;-89
2023/06/15 04:39:23;;;;;;;7.30;5.20;;;;;;;;;;2054181;28;20387;-89
2023/06/15 04:40:24;;;;;;;9.93;5.07;;;;;;;;;;2047130;28;20091;-88
2023/06/15 04:41:29;;;;;;;8.88;6.13;;;;;;;;;;2046694;29;20034;-89
2023/06/15 04:42:32;;;;;;;7.75;6.18;;;;;;;;;;2054701;28;20436;-89
2023/06/15 04:43:32;;;;;;;6.05;5.55;;;;;;;;;;2057193;28;20038;-87
2023/06/15 04:44:33;;;;;;;7.78;5.88;;;;;;;;;;2058296;28;20030;-88
2023/06/15 04:45:33;;;;;;;5.97;5.38;;;;;;;;;;2055744;28;20102;-89
2023/06/15 04:46:38;;;;;;;8.55;6.57;;;;;;;;;;2055302;28;20019;-88
2023/06/15 04:47:38;;;;;;;6.22;5.40;;;;;;;;;;2047963;28;20316;-88
2023/06/15 04:48:43;;;;;;;5.75;4.68;;;;;;;;;;2055149;28;20074;-89
2023/06/15 04:49:44;;;;;;;5.88;4.78;;;;;;;;;;2063234;28;20097;-89
2023/06/15 04:50:48;;;;;;;6.30;5.20;;;;;;;;;;2064960;28;20023;-89
2023/06/15 04:51:50;;;;;;;6.53;4.95;;;;;;;;;;2065390;28;20110;-89
2023/06/15 04:52:50;;;;;;;7.22;5.28;;;;;;;;;;2064708;28;20050;-89
2023/06/15 04:53:51;;;;;;;8.75;5.53;;;;;;;;;;2065285;28;20027;-89
2023/06/15 04:54:51;;;;;;;7.25;6.03;;;;;;;;;;2063259;28;20464;-89
2023/06/15 04:55:52;;;;;;;6.57;5.65;;;;;;;;;;2057287;28;20035;-89
2023/06/15 04:57:13;;;;;;;6.32;5.70;;;;;;;;;;2051309;29;20129;-89
2023/06/15 04:58:14;;;;;;;6.22;5.63;;;;;;;;;;2050755;28;20041;-89
2023/06/15 04:59:14;;;;;;;7.57;5.75;;;;;;;;;;2055445;28;20041;-88
2023/06/15 05:00:15;;;;;;;7.75;6.00;;;;;;;;;;2055401;28;20415;-89
2023/06/15 05:01:15;;;;;;;9.52;5.78;;;;;;;;;;2055708;28;20085;-88
2023/06/15 05:02:16;;;;;;;6.88;5.82;;;;;;;;;;2055271;28;20313;-88
2023/06/15 05:03:17;;;;;;;7.68;5.32;;;;;;;;;;2055409;28;20309;-88
2023/06/15 05:04:19;;;;;;;6.65;5.00;;;;;;;;;;2055029;28;20057;-90
2023/06/15 05:05:20;;;;;;;6.97;6.13;;;;;;;;;;2055093;28;20027;-90
2023/06/15 05:06:20;;;;;;;6.53;5.50;;;;;;;;;;2055585;28;20031;-90
2023/06/15 05:07:21;;;;;;;7.20;5.43;;;;;;;;;;2055343;28;20447;-88
2023/06/15 05:08:21;;;;;;;6.15;4.97;;;;;;;;;;2059172;28;20022;-90
2023/06/15 05:09:22;;;;;;;5.40;4.90;;;;;;;;;;2061893;28;20026;-89
2023/06/15 05:10:22;;;;;;;6.13;5.00;;;;;;;;;;2056544;28;20034;-89
2023/06/15 05:11:23;;;;;;;5.38;4.68;;;;;;;;;;2064800;28;20072;-89
2023/06/15 05:12:23;;;;;;;5.80;5.18;;;;;;;;;;2064669;28;20031;-89
2023/06/15 05:13:24;;;;;;;5.70;5.00;;;;;;;;;;2060884;28;20050;-89
2023/06/15 05:14:26;;;;;;;5.90;4.95;;;;;;;;;;2054964;28;20053;-90
2023/06/15 05:15:26;;;;;;;6.93;5.40;;;;;;;;;;2053995;28;20545;-90
2023/06/15 05:16:27;;;;;;;7.75;4.57;;;;;;;;;;2054545;28;20037;-90
2023/06/15 05:17:27;;;;;;;4.80;4.30;;;;;;;;;;2055137;28;20483;-90
2023/06/15 05:18:28;;;;;;;5.25;3.80;;;;;;;;;;2054194;28;20470;-89
2023/06/15 05:19:32;;;;;;;5.72;4.03;;;;;;;;;;2046196;29;20035;-89
2023/06/15 05:20:33;;;;;;;6.53;4.28;;;;;;;;;;2054364;28;20030;-89
2023/06/15 05:21:33;;;;;;;4.32;3.90;;;;;;;;;;2054983;28;20436;-89
2023/06/15 05:22:34;;;;;;;6.03;4.35;;;;;;;;;;2055000;28;20109;-89
2023/06/15 05:23:34;;;;;;;5.07;4.15;;;;;;;;;;2054238;28;20256;-90
2023/06/15 05:24:35;;;;;;;6.20;3.95;;;;;;;;;;2054811;28;20471;-89
2023/06/15 05:25:35;;;;;;;6.15;4.90;;;;;;;;;;2055515;28;20031;-88
2023/06/15 05:26:35;;;;;;;6.13;5.18;;;;;;;;;;2054537;28;20521;-89
2023/06/15 05:27:36;;;;;;;6.32;4.88;;;;;;;;;;2054656;28;20851;-89
2023/06/15 05:28:37;;;;;;;7.57;5.20;;;;;;;;;;2053553;28;20060;-89
2023/06/15 05:29:58;;;;;;;5.72;5.07;;;;;;;;;;2045201;29;20031;-89
2023/06/15 05:31:21;;;;;;;6.75;6.07;;;;;;;;;;2044583;28;20526;-89
2023/06/15 05:32:22;;;;;;;5.30;4.80;;;;;;;;;;2045713;28;20054;-88
2023/06/15 05:33:41;;;;;;;5.40;4.90;;;;;;;;;;2054592;28;20034;-89
2023/06/15 05:35:07;;;;;;;5.57;5.07;;;;;;;;;;2051092;28;20039;-88
2023/06/15 05:36:46;;;;;;;6.03;5.22;;;;;;;;;;2051872;28;20045;-89
2023/06/15 05:37:57;;;;;;;5.55;5.15;;;;;;;;;;2012139;29;20036;-89
2023/06/15 05:40:46;;;;;;;5.90;5.30;;;;;;;;;;2018364;29;19927;-90
2023/06/15 05:49:41;;;;;;;6.35;5.65;;;;;;;;;;2022346;29;20033;-90
2023/06/15 06:10:19;;;;;;;5.07;4.50;;;;;;;;;;1997009;29;20030;-90
2023/06/15 06:11:19;;;;;;;6.68;4.25;;;;;;;;;;2015567;29;20033;-89
2023/06/15 06:12:22;;;;;;;5.72;5.13;;;;;;;;;;2031787;29;20511;-89
2023/06/15 06:13:23;;;;;;;6.28;4.45;;;;;;;;;;2038410;29;20524;-91
2023/06/15 06:14:25;;;;;;;5.38;4.28;;;;;;;;;;2036201;29;20114;-90
2023/06/15 06:15:26;;;;;;;4.72;4.22;;;;;;;;;;2039922;29;20024;-90
2023/06/15 06:16:27;;;;;;;4.28;3.92;;;;;;;;;;2039928;29;20369;-89
2023/06/15 06:17:27;;;;;;;4.97;4.35;;;;;;;;;;2040852;29;20151;-90
2023/06/15 06:18:28;;;;;;;6.78;4.60;;;;;;;;;;2044947;29;20019;-90
2023/06/15 06:19:28;;;;;;;4.72;3.95;;;;;;;;;;2043680;29;20079;-88
2023/06/15 06:20:29;;;;;;;4.75;4.35;;;;;;;;;;2035139;29;20586;-88
2023/06/15 06:21:31;;;;;;;4.47;4.07;;;;;;;;;;2041603;29;20028;-89
2023/06/15 06:22:32;;;;;;;5.43;4.80;;;;;;;;;;2042684;29;20038;-90
2023/06/15 06:23:34;;;;;;;5.20;4.53;;;;;;;;;;2041616;29;20400;-89
2023/06/15 06:24:35;;;;;;;4.50;4.10;;;;;;;;;;2041240;29;20026;-89
2023/06/15 06:25:35;;;;;;;5.35;3.78;;;;;;;;;;2040963;29;20420;-89
2023/06/15 06:26:35;;;;;;;5.07;4.57;;;;;;;;;;2041430;29;20149;-89
2023/06/15 06:27:36;;;;;;;4.93;4.20;;;;;;;;;;2041874;29;20080;-90
2023/06/15 06:28:36;;;;;;;4.72;4.28;;;;;;;;;;2041333;29;20012;-90
2023/06/15 06:29:37;;;;;;;4.60;4.13;;;;;;;;;;2041704;29;20030;-91
2023/06/15 06:30:38;;;;;;;7.28;4.20;;;;;;;;;;2042552;29;20451;-91
2023/06/15 06:31:38;;;;;;;4.20;3.67;;;;;;;;;;2042003;29;20099;-89
2023/06/15 06:32:39;;;;;;;6.18;4.15;;;;;;;;;;2041524;29;20102;-88
2023/06/15 06:33:40;;;;;;;4.30;3.83;;;;;;;;;;2041197;29;20026;-88
2023/06/15 06:34:40;;;;;;;7.50;3.92;;;;;;;;;;2041099;29;20159;-90
2023/06/15 06:35:41;;;;;;;4.68;4.20;;;;;;;;;;2040769;29;20071;-89
2023/06/15 06:36:41;;;;;;;7.30;4.32;;;;;;;;;;2032741;29;20052;-90
2023/06/15 06:37:42;;;;;;;4.32;3.88;;;;;;;;;;2032969;29;20088;-90
2023/06/15 06:38:42;;;;;;;4.72;3.90;;;;;;;;;;2040853;29;20023;-90